Weather at Arnold Palmer Regional Airport

Public forecast

Using degrees Fahrenheit for public forecast. Weather courtesy of forecast.io.

Current aviation weather report (METAR) for Arnold Palmer Regional Airport

Retrieved 2020/09/30 09:35 UTC (22 minutes ago):

KLBE 300935Z AUTO 23009KT 10SM FEW010 SCT015 BKN019 11/11 A2974 RMK AO2

Aviation forecast (TAF) for Arnold Palmer Regional Airport

Retrieved 2020/09/30 06:22 UTC (4 hours ago):

TAF KLBE 300520Z 3006/0106 23005KT 4SM -RA BR OVC015 FM300900 24005KT 5SM BR BKN010 FM301300 24015G25KT P6SM BKN035 FM010000 24010KT P6SM BKN040